Time;durP1;ratioP1;P1;durP2;ratioP2;P2;SDS_P1;SDS_P2;PMS_P1;PMS_P2;Temp;Humidity;BMP_temperature;BMP_pressure;BME280_temperature;BME280_humidity;BME280_pressure;Samples;Min_cycle;Max_cycle;Signal;HPM_P1;HPM_P2
2023/08/10 00:00:32;;;;;;;4.40;2.20;;;;;;;21.86;50.18;100765.29;108361;1282;22047;-74
2023/08/10 00:02:57;;;;;;;3.90;2.20;;;;;;;21.84;50.11;100765.20;108443;1277;21991;-74
2023/08/10 00:05:24;;;;;;;5.20;2.30;;;;;;;21.82;50.21;100765.65;108463;1276;21971;-57
2023/08/10 00:07:49;;;;;;;4.20;2.80;;;;;;;21.72;50.62;100762.25;108425;1282;22436;-74
2023/08/10 00:10:15;;;;;;;3.80;2.00;;;;;;;21.66;50.73;100756.86;108451;1277;21985;-74
2023/08/10 00:12:40;;;;;;;3.70;2.30;;;;;;;21.62;50.70;100757.41;108404;1282;22062;-74
2023/08/10 00:15:06;;;;;;;3.00;2.20;;;;;;;21.59;50.74;100758.64;108386;1276;21983;-58
2023/08/10 00:17:33;;;;;;;4.70;2.10;;;;;;;21.52;50.94;100757.02;108380;1282;21983;-58
2023/08/10 00:19:58;;;;;;;3.20;1.90;;;;;;;21.52;51.02;100760.38;108340;1282;21993;-74
2023/08/10 00:22:24;;;;;;;4.70;2.20;;;;;;;21.53;51.00;100756.61;108331;1282;21984;-73
2023/08/10 00:24:50;;;;;;;3.20;2.20;;;;;;;21.51;50.97;100754.55;108415;1280;22931;-73
2023/08/10 00:27:15;;;;;;;4.10;2.10;;;;;;;21.49;50.93;100757.54;108368;1280;23705;-58
2023/08/10 00:29:41;;;;;;;4.10;2.40;;;;;;;21.45;51.06;100761.13;108359;1282;22026;-58
2023/08/10 00:32:07;;;;;;;3.00;2.00;;;;;;;21.41;51.13;100764.38;108360;1282;22018;-73
2023/08/10 00:34:32;;;;;;;3.20;2.20;;;;;;;21.39;51.23;100763.56;108359;1276;23664;-59
2023/08/10 00:36:58;;;;;;;3.80;2.30;;;;;;;21.37;51.33;100760.08;108352;1276;22094;-58
2023/08/10 00:39:24;;;;;;;2.60;1.80;;;;;;;21.35;51.31;100757.87;108497;1281;21986;-58
2023/08/10 00:41:49;;;;;;;3.00;1.80;;;;;;;21.34;51.53;100763.45;108450;1276;21989;-74
2023/08/10 00:44:16;;;;;;;2.90;1.90;;;;;;;21.32;51.56;100763.05;108219;1273;23737;-74
2023/08/10 00:46:42;;;;;;;4.00;2.40;;;;;;;21.27;51.72;100761.31;108266;1276;22674;-71
2023/08/10 00:49:08;;;;;;;3.80;2.30;;;;;;;21.25;51.80;100762.69;108228;1282;21978;-73
2023/08/10 00:51:33;;;;;;;3.80;2.30;;;;;;;21.24;51.95;100763.26;108346;1282;21987;-58
2023/08/10 00:54:00;;;;;;;3.60;2.30;;;;;;;21.23;52.00;100762.96;108395;1282;21985;-59
2023/08/10 00:56:25;;;;;;;3.30;2.30;;;;;;;21.25;52.01;100761.08;108131;1278;22167;-73
2023/08/10 00:58:51;;;;;;;3.60;2.20;;;;;;;21.27;51.77;100761.14;108299;1276;22021;-73
2023/08/10 01:01:16;;;;;;;5.00;2.60;;;;;;;21.27;51.75;100760.81;108129;1283;22858;-58
2023/08/10 01:03:42;;;;;;;3.20;2.00;;;;;;;21.25;51.76;100759.79;108327;1276;22012;-73
2023/08/10 01:06:17;;;;;;;2.80;2.10;;;;;;;21.25;51.73;100761.79;108419;1282;23725;-72
2023/08/10 01:08:51;;;;;;;2.90;2.10;;;;;;;21.24;51.87;100757.69;108418;1282;21981;-58
2023/08/10 01:11:36;;;;;;;3.40;2.00;;;;;;;21.24;51.84;100753.27;108397;1280;21990;-73
2023/08/10 01:14:46;;;;;;;3.40;2.00;;;;;;;21.19;52.10;100748.89;108469;1280;21986;-59
2023/08/10 01:17:18;;;;;;;3.00;2.00;;;;;;;21.09;52.49;100750.11;107830;1286;21996;-58
2023/08/10 01:19:43;;;;;;;3.10;2.20;;;;;;;21.10;52.39;100749.52;107983;1289;21984;-74
2023/08/10 01:22:12;;;;;;;3.90;2.50;;;;;;;21.11;52.58;100750.88;108068;1282;21989;-59
2023/08/10 01:24:41;;;;;;;4.90;2.80;;;;;;;21.20;52.14;100749.38;108454;1274;21983;-69
2023/08/10 01:27:09;;;;;;;4.20;2.80;;;;;;;21.02;52.62;100752.25;108317;1277;24402;-58
2023/08/10 01:29:35;;;;;;;4.70;2.20;;;;;;;21.06;52.57;100756.86;108484;1280;21986;-59
2023/08/10 01:32:01;;;;;;;4.70;2.50;;;;;;;21.09;52.36;100760.96;108459;1277;21984;-60
2023/08/10 01:34:27;;;;;;;3.80;2.50;;;;;;;20.97;52.76;100756.58;108526;1280;21989;-72
2023/08/10 01:36:53;;;;;;;3.10;2.40;;;;;;;20.93;52.77;100757.50;108428;1277;21988;-73
2023/08/10 01:39:18;;;;;;;3.90;2.30;;;;;;;20.92;52.98;100756.48;108465;1277;21983;-60
2023/08/10 01:41:44;;;;;;;4.10;2.40;;;;;;;20.91;53.08;100759.89;108433;1281;22169;-60
2023/08/10 01:44:09;;;;;;;4.20;2.40;;;;;;;20.92;53.14;100760.05;108428;1277;21993;-59
2023/08/10 01:46:36;;;;;;;5.20;2.90;;;;;;;21.03;52.80;100762.02;108464;1274;21995;-59
2023/08/10 01:49:02;;;;;;;3.60;2.70;;;;;;;21.05;52.66;100760.98;108483;1281;21953;-59
2023/08/10 01:51:28;;;;;;;7.50;2.80;;;;;;;21.04;52.49;100764.09;108204;1279;21983;-72
2023/08/10 01:53:55;;;;;;;4.10;2.70;;;;;;;21.01;52.46;100763.15;108464;1280;21983;-74
2023/08/10 01:56:20;;;;;;;4.60;2.30;;;;;;;20.85;53.00;100763.95;108270;1274;23822;-65
2023/08/10 01:58:46;;;;;;;5.50;2.70;;;;;;;20.84;53.16;100759.36;108237;1276;21988;-59
2023/08/10 02:01:12;;;;;;;5.50;2.40;;;;;;;20.91;52.64;100757.92;108327;1279;21985;-59
2023/08/10 02:03:37;;;;;;;4.80;2.50;;;;;;;20.92;52.60;100754.88;108286;1276;21985;-71
2023/08/10 02:06:03;;;;;;;4.70;2.70;;;;;;;20.92;52.65;100753.77;107689;1281;1002547;-59
2023/08/10 02:08:29;;;;;;;4.10;1.90;;;;;;;20.92;52.67;100753.40;108488;1280;21982;-59
2023/08/10 02:10:54;;;;;;;5.70;2.80;;;;;;;20.93;52.76;100754.83;108493;1281;21981;-59
2023/08/10 02:13:20;;;;;;;3.30;2.60;;;;;;;20.92;52.71;100757.39;108541;1280;23048;-71
2023/08/10 02:15:46;;;;;;;5.40;2.80;;;;;;;20.89;52.71;100758.96;108481;1280;23609;-59
2023/08/10 02:18:11;;;;;;;4.40;2.80;;;;;;;20.85;52.77;100761.98;108458;1282;21983;-71
2023/08/10 02:20:40;;;;;;;4.00;2.10;;;;;;;20.82;52.69;100764.98;108322;1273;21993;-59
2023/08/10 02:23:05;;;;;;;3.20;2.20;;;;;;;20.79;52.82;100770.27;108601;1276;21984;-59
2023/08/10 02:25:31;;;;;;;3.40;2.20;;;;;;;20.76;52.90;100772.39;108450;1277;21981;-59
2023/08/10 02:27:56;;;;;;;5.80;2.30;;;;;;;20.72;52.84;100772.23;108453;1277;21984;-71
2023/08/10 02:30:22;;;;;;;3.40;2.30;;;;;;;20.69;52.95;100774.48;108414;1276;23663;-58
2023/08/10 02:32:48;;;;;;;3.60;2.50;;;;;;;20.68;53.09;100773.50;108432;1281;21983;-58
2023/08/10 02:35:14;;;;;;;3.50;2.60;;;;;;;20.67;53.06;100772.88;108421;1276;22024;-58
2023/08/10 02:37:39;;;;;;;6.50;2.70;;;;;;;20.65;53.05;100770.13;108443;1276;23039;-58
2023/08/10 02:40:07;;;;;;;4.30;2.70;;;;;;;20.66;53.20;100772.77;108466;1280;23641;-58
2023/08/10 02:42:33;;;;;;;6.50;3.20;;;;;;;20.67;53.42;100778.36;108483;1270;21989;-70
2023/08/10 02:44:58;;;;;;;5.00;2.30;;;;;;;20.68;53.48;100780.96;108484;1274;22733;-58
2023/08/10 02:47:24;;;;;;;5.30;2.90;;;;;;;20.68;53.37;100777.81;108474;1277;22149;-70
2023/08/10 02:49:50;;;;;;;3.70;2.30;;;;;;;20.65;53.26;100782.16;108403;1276;22950;-70
2023/08/10 02:52:15;;;;;;;4.10;2.30;;;;;;;20.64;53.24;100784.54;108348;1277;24330;-70
2023/08/10 02:54:41;;;;;;;5.20;2.70;;;;;;;20.63;53.31;100782.45;108368;1282;22085;-69
2023/08/10 02:57:07;;;;;;;3.80;2.40;;;;;;;20.62;53.42;100788.00;108386;1282;21996;-69
2023/08/10 02:59:32;;;;;;;6.40;3.00;;;;;;;20.63;53.39;100782.98;108419;1277;21989;-69
2023/08/10 03:01:58;;;;;;;6.20;3.20;;;;;;;20.62;53.48;100784.27;108449;1281;23707;-58
2023/08/10 03:04:24;;;;;;;6.00;4.00;;;;;;;20.62;53.67;100782.30;108479;1277;22334;-71
2023/08/10 03:06:50;;;;;;;69.60;63.80;;;;;;;20.63;53.91;100780.48;108467;1280;21988;-70
2023/08/10 03:09:15;;;;;;;16.20;14.20;;;;;;;20.67;53.85;100778.01;108446;1281;23380;-69
2023/08/10 03:11:41;;;;;;;11.10;7.20;;;;;;;20.71;53.90;100779.59;108416;1276;21986;-70
2023/08/10 03:14:06;;;;;;;8.60;5.30;;;;;;;20.72;54.12;100779.69;108450;1282;23716;-71
2023/08/10 03:16:32;;;;;;;5.90;4.50;;;;;;;20.75;54.34;100776.55;108568;1278;21983;-71
2023/08/10 03:18:58;;;;;;;6.00;4.20;;;;;;;20.80;54.53;100779.70;108523;1277;21991;-71
2023/08/10 03:21:23;;;;;;;9.10;4.00;;;;;;;20.86;54.66;100783.91;108528;1277;21989;-58
2023/08/10 03:23:49;;;;;;;4.10;3.10;;;;;;;20.90;54.55;100786.90;108457;1278;21980;-71
2023/08/10 03:26:14;;;;;;;3.90;3.00;;;;;;;20.92;54.56;100791.59;108243;1282;22016;-59
2023/08/10 03:28:40;;;;;;;3.30;2.70;;;;;;;20.95;54.70;100789.67;108473;1277;22022;-71
2023/08/10 03:31:05;;;;;;;3.90;2.50;;;;;;;21.00;54.82;100789.95;108563;1281;21977;-58
2023/08/10 03:33:31;;;;;;;6.40;2.30;;;;;;;21.06;54.96;100793.77;108495;1276;21981;-71
2023/08/10 03:35:57;;;;;;;6.10;3.00;;;;;;;21.13;55.38;100797.88;108522;1281;23638;-59
2023/08/10 03:38:22;;;;;;;5.30;2.50;;;;;;;21.21;55.48;100798.05;108496;1282;22020;-71
2023/08/10 03:40:48;;;;;;;4.70;2.70;;;;;;;21.28;55.43;100802.33;108479;1282;22026;-59
2023/08/10 03:43:13;;;;;;;4.10;2.70;;;;;;;21.35;55.27;100803.21;108500;1276;21984;-71
2023/08/10 03:45:39;;;;;;;5.50;2.70;;;;;;;21.43;55.26;100806.77;108437;1281;21993;-71
2023/08/10 03:48:05;;;;;;;6.30;3.30;;;;;;;21.50;55.35;100810.50;108445;1278;23609;-58
2023/08/10 03:50:30;;;;;;;9.50;3.10;;;;;;;21.58;55.61;100812.05;108471;1276;21987;-58
2023/08/10 03:52:56;;;;;;;3.50;2.70;;;;;;;21.66;55.74;100807.38;108474;1281;21993;-73
2023/08/10 03:55:21;;;;;;;4.00;2.60;;;;;;;21.73;55.95;100804.69;108185;1276;22008;-73
2023/08/10 03:57:48;;;;;;;7.40;2.80;;;;;;;21.79;55.93;100805.81;108465;1278;22018;-58
2023/08/10 04:00:14;;;;;;;7.60;3.50;;;;;;;21.88;56.28;100805.90;108490;1280;21986;-59
2023/08/10 04:02:40;;;;;;;6.40;2.80;;;;;;;21.98;56.23;100803.76;108490;1282;21975;-70
2023/08/10 04:05:10;;;;;;;11.00;3.00;;;;;;;22.08;56.34;100806.63;108261;1277;23628;-70
2023/08/10 04:07:37;;;;;;;5.60;2.80;;;;;;;22.17;56.48;100805.27;108463;1280;22857;-58
2023/08/10 04:10:06;;;;;;;6.00;2.80;;;;;;;22.25;56.45;100800.18;108473;1281;21982;-58
2023/08/10 04:12:36;;;;;;;5.30;2.70;;;;;;;22.34;56.53;100799.14;108443;1277;21982;-58
2023/08/10 04:15:02;;;;;;;5.20;2.40;;;;;;;22.43;56.49;100796.36;108484;1282;21985;-58
2023/08/10 04:17:28;;;;;;;5.30;2.40;;;;;;;22.52;56.53;100797.47;108463;1277;21986;-75
2023/08/10 04:19:54;;;;;;;4.60;2.80;;;;;;;22.61;56.47;100792.86;108148;1281;23043;-58
2023/08/10 04:22:20;;;;;;;4.60;2.60;;;;;;;22.69;56.42;100791.67;108528;1281;21985;-58
2023/08/10 04:24:45;;;;;;;7.40;3.10;;;;;;;22.78;56.38;100789.57;108511;1281;21989;-74
2023/08/10 04:27:11;;;;;;;6.30;3.10;;;;;;;22.86;56.41;100786.25;108435;1276;21987;-75
2023/08/10 04:29:37;;;;;;;5.80;2.80;;;;;;;22.93;56.41;100787.09;108479;1280;21987;-74
2023/08/10 04:32:04;;;;;;;6.10;3.00;;;;;;;23.01;56.45;100791.27;108440;1282;21986;-58
2023/08/10 04:34:32;;;;;;;4.70;2.70;;;;;;;23.11;56.71;100787.33;108505;1282;22449;-58
2023/08/10 04:36:57;;;;;;;5.20;2.90;;;;;;;23.21;56.59;100785.16;108544;1282;21996;-75
2023/08/10 04:39:23;;;;;;;5.00;2.60;;;;;;;23.32;57.05;100781.27;108526;1277;22018;-59
2023/08/10 04:41:48;;;;;;;4.50;2.90;;;;;;;23.47;57.18;100782.39;108427;1276;21980;-58
2023/08/10 04:44:14;;;;;;;7.10;2.90;;;;;;;23.64;57.29;100775.46;108481;1280;21988;-77
2023/08/10 04:46:40;;;;;;;3.90;2.50;;;;;;;23.79;56.68;100770.77;108422;1277;23640;-58
2023/08/10 04:49:05;;;;;;;4.70;2.50;;;;;;;23.91;56.55;100770.04;108449;1277;21995;-77
2023/08/10 04:51:31;;;;;;;3.00;2.10;;;;;;;24.04;56.49;100769.42;108378;1279;22045;-79
2023/08/10 04:53:57;;;;;;;6.20;2.70;;;;;;;24.15;55.98;100769.47;108159;1280;23641;-57
2023/08/10 04:56:22;;;;;;;4.00;2.20;;;;;;;24.23;55.64;100762.18;108470;1277;21984;-57
2023/08/10 04:58:48;;;;;;;6.10;2.70;;;;;;;24.28;55.47;100759.66;108349;1280;22457;-58
2023/08/10 05:01:14;;;;;;;3.60;2.30;;;;;;;24.33;55.57;100757.94;108409;1277;21980;-76
2023/08/10 05:03:40;;;;;;;5.40;2.50;;;;;;;24.37;55.15;100756.63;108393;1281;21981;-58
2023/08/10 05:06:06;;;;;;;6.20;2.60;;;;;;;24.40;54.93;100760.54;108392;1274;21980;-78
2023/08/10 05:08:31;;;;;;;4.80;2.70;;;;;;;24.44;55.01;100758.30;108264;1283;23738;-59
2023/08/10 05:11:00;;;;;;;4.80;2.80;;;;;;;24.48;54.76;100748.34;108357;1277;22023;-78
2023/08/10 05:13:25;;;;;;;4.50;3.10;;;;;;;24.54;54.78;100747.41;108354;1280;23093;-76
2023/08/10 05:15:51;;;;;;;5.10;2.70;;;;;;;24.62;54.78;100745.99;108386;1274;22733;-58
2023/08/10 05:18:20;;;;;;;2.80;2.00;;;;;;;24.73;54.69;100738.47;108369;1277;22045;-77
2023/08/10 05:20:46;;;;;;;5.70;2.40;;;;;;;24.86;54.51;100730.83;108280;1277;21985;-59
2023/08/10 05:23:11;;;;;;;5.20;2.50;;;;;;;24.98;54.49;100729.34;108322;1272;21983;-78
2023/08/10 05:25:37;;;;;;;3.80;2.50;;;;;;;25.11;54.39;100728.79;108371;1273;21990;-77
2023/08/10 05:28:03;;;;;;;4.70;2.80;;;;;;;25.24;54.09;100725.59;108180;1282;23732;-78
2023/08/10 05:30:29;;;;;;;5.20;2.80;;;;;;;25.34;53.95;100722.23;108367;1282;22038;-59
2023/08/10 05:32:55;;;;;;;5.90;2.90;;;;;;;25.44;53.77;100724.98;108365;1276;21992;-58
2023/08/10 05:35:21;;;;;;;5.00;3.30;;;;;;;25.53;53.74;100727.77;108363;1282;21988;-78
2023/08/10 05:37:46;;;;;;;4.20;2.90;;;;;;;25.63;53.43;100729.01;108401;1277;21989;-80
2023/08/10 05:40:12;;;;;;;5.20;3.00;;;;;;;25.74;53.44;100725.02;108154;1279;21991;-79
2023/08/10 05:42:39;;;;;;;6.80;2.50;;;;;;;25.86;53.22;100726.70;108339;1277;21991;-59
2023/08/10 05:45:20;;;;;;;8.40;2.60;;;;;;;25.97;52.97;100726.84;108403;1280;22026;-58
2023/08/10 05:47:46;;;;;;;6.90;2.80;;;;;;;26.15;52.34;100728.09;108468;1282;21985;-58
2023/08/10 05:50:12;;;;;;;6.60;2.80;;;;;;;26.36;52.50;100733.61;108389;1282;22041;-74
2023/08/10 05:52:38;;;;;;;7.70;3.30;;;;;;;26.53;52.71;100736.81;108402;1282;21985;-79
2023/08/10 05:55:04;;;;;;;4.10;2.50;;;;;;;26.68;52.63;100741.86;108404;1280;21957;-78
2023/08/10 05:57:30;;;;;;;3.80;2.40;;;;;;;26.80;52.48;100743.65;108385;1282;22266;-70
2023/08/10 05:59:56;;;;;;;4.00;2.30;;;;;;;26.91;52.31;100741.23;108424;1282;21991;-59
2023/08/10 06:02:22;;;;;;;4.50;2.50;;;;;;;27.03;52.11;100741.23;108390;1282;21983;-75
2023/08/10 06:04:49;;;;;;;3.10;2.40;;;;;;;27.14;51.85;100742.23;108440;1275;21985;-60
2023/08/10 06:07:15;;;;;;;4.60;2.80;;;;;;;27.24;51.48;100745.60;108428;1282;21991;-59
2023/08/10 06:09:40;;;;;;;5.10;2.90;;;;;;;27.33;51.33;100748.18;108406;1282;21988;-83
2023/08/10 06:12:06;;;;;;;6.00;3.00;;;;;;;27.44;51.10;100746.61;108356;1277;23608;-82
2023/08/10 06:14:33;;;;;;;8.10;2.60;;;;;;;27.52;50.74;100745.32;108359;1282;23641;-75
2023/08/10 06:16:59;;;;;;;5.90;2.80;;;;;;;27.61;50.37;100742.05;108348;1282;21989;-59
2023/08/10 06:19:24;;;;;;;10.80;2.70;;;;;;;27.71;50.07;100747.63;108185;1279;22003;-59
2023/08/10 06:21:51;;;;;;;6.10;2.50;;;;;;;27.81;49.85;100750.44;108294;1282;21978;-81
2023/08/10 06:24:17;;;;;;;4.20;2.80;;;;;;;27.91;50.02;100750.38;108475;1281;21977;-59
2023/08/10 06:26:43;;;;;;;5.30;2.50;;;;;;;28.01;50.05;100753.35;108518;1277;21981;-59
2023/08/10 06:29:08;;;;;;;3.50;2.40;;;;;;;28.11;49.76;100752.38;108441;1281;22016;-62
2023/08/10 06:31:35;;;;;;;3.40;2.50;;;;;;;28.22;49.71;100756.20;108441;1269;21986;-59
2023/08/10 06:34:02;;;;;;;7.00;2.80;;;;;;;28.41;49.90;100748.92;108391;1280;21987;-69
2023/08/10 06:36:28;;;;;;;4.10;2.60;;;;;;;28.62;49.87;100744.98;108419;1279;21989;-79
2023/08/10 06:38:54;;;;;;;4.60;2.70;;;;;;;28.84;49.75;100741.73;108441;1282;21986;-74
2023/08/10 06:41:20;;;;;;;4.90;2.90;;;;;;;29.07;49.41;100740.23;108249;1273;21985;-58
2023/08/10 06:43:46;;;;;;;4.00;2.30;;;;;;;29.31;49.21;100737.84;108450;1271;21986;-76
2023/08/10 06:46:12;;;;;;;5.50;2.50;;;;;;;29.55;49.30;100736.64;108496;1281;21982;-58
2023/08/10 06:48:37;;;;;;;4.70;2.50;;;;;;;29.79;49.02;100734.78;108359;1273;22025;-59
2023/08/10 06:51:03;;;;;;;3.90;2.80;;;;;;;30.02;48.61;100734.83;108352;1276;22025;-58
2023/08/10 06:53:29;;;;;;;4.30;2.80;;;;;;;30.21;48.37;100738.30;108349;1282;21989;-78
2023/08/10 06:55:54;;;;;;;4.20;2.10;;;;;;;30.47;48.08;100737.24;108441;1282;21986;-76
2023/08/10 06:58:20;;;;;;;4.80;3.20;;;;;;;30.63;47.43;100734.77;108403;1280;21986;-76
2023/08/10 07:00:45;;;;;;;6.40;4.30;;;;;;;30.75;47.33;100730.46;108419;1281;21985;-77
2023/08/10 07:03:11;;;;;;;5.20;2.60;;;;;;;30.84;46.43;100728.09;110411;1281;22435;-79
2023/08/10 07:05:38;;;;;;;3.70;2.60;;;;;;;30.88;45.95;100724.15;108217;1282;22451;-80
2023/08/10 07:08:04;;;;;;;3.20;2.00;;;;;;;30.89;45.89;100726.95;108492;1282;22012;-78
2023/08/10 07:10:31;;;;;;;3.80;2.40;;;;;;;31.00;45.67;100723.20;108533;1280;23606;-79
2023/08/10 07:12:56;;;;;;;3.30;2.10;;;;;;;31.12;45.92;100720.50;108450;1282;21989;-82
2023/08/10 07:15:22;;;;;;;2.50;1.80;;;;;;;31.23;45.23;100716.79;108460;1281;21985;-58
2023/08/10 07:17:48;;;;;;;4.70;2.00;;;;;;;31.32;45.01;100720.27;108449;1279;21978;-58
2023/08/10 07:20:13;;;;;;;4.10;2.80;;;;;;;31.38;44.69;100719.88;108522;1281;21985;-58
2023/08/10 07:22:41;;;;;;;4.20;2.60;;;;;;;31.41;44.63;100722.45;108492;1281;21985;-58
2023/08/10 07:25:07;;;;;;;5.60;2.20;;;;;;;31.46;43.79;100721.86;108526;1271;21988;-59
2023/08/10 07:27:33;;;;;;;3.20;2.00;;;;;;;31.41;43.48;100720.25;108455;1271;21954;-62
2023/08/10 07:29:59;;;;;;;3.90;1.80;;;;;;;31.52;44.19;100714.56;108257;1281;21983;-73
2023/08/10 07:32:26;;;;;;;7.70;2.20;;;;;;;31.69;43.71;100706.89;108461;1281;21995;-59
2023/08/10 07:34:52;;;;;;;7.90;2.10;;;;;;;31.90;43.88;100697.83;108465;1281;21986;-79
2023/08/10 07:37:17;;;;;;;4.30;2.00;;;;;;;32.18;43.40;100694.92;108256;1281;23355;-59
2023/08/10 07:39:43;;;;;;;4.50;2.00;;;;;;;32.34;42.68;100693.77;108628;1274;21982;-60
2023/08/10 07:42:09;;;;;;;2.90;2.00;;;;;;;32.52;42.92;100690.65;108455;1282;22008;-77
2023/08/10 07:44:34;;;;;;;4.40;1.90;;;;;;;32.72;42.32;100690.11;108516;1281;22021;-79
2023/08/10 07:47:00;;;;;;;3.00;1.80;;;;;;;32.78;41.85;100679.90;108499;1277;21984;-59
2023/08/10 07:49:25;;;;;;;2.80;1.80;;;;;;;32.81;41.56;100681.74;108336;1277;21992;-76
2023/08/10 07:51:51;;;;;;;2.50;1.60;;;;;;;32.84;41.69;100683.11;108402;1282;21986;-75
2023/08/10 07:54:17;;;;;;;2.70;1.70;;;;;;;32.99;41.97;100680.70;108360;1282;21987;-59
2023/08/10 07:56:42;;;;;;;3.70;1.80;;;;;;;33.30;41.85;100678.93;108468;1278;21994;-59
2023/08/10 07:59:08;;;;;;;3.90;1.80;;;;;;;33.63;40.98;100678.11;108464;1276;22458;-76
2023/08/10 08:01:34;;;;;;;6.50;1.80;;;;;;;33.69;39.99;100685.46;108136;1283;22147;-60
2023/08/10 08:04:00;;;;;;;3.00;2.00;;;;;;;33.57;39.59;100684.73;108413;1281;21987;-75
2023/08/10 08:06:26;;;;;;;3.30;2.00;;;;;;;33.46;39.46;100684.44;108467;1281;21989;-74
2023/08/10 08:08:51;;;;;;;3.10;1.80;;;;;;;33.48;39.92;100684.20;108475;1281;21978;-73
2023/08/10 08:11:17;;;;;;;2.40;1.80;;;;;;;33.55;39.08;100683.33;108485;1281;21986;-73
2023/08/10 08:13:43;;;;;;;2.60;1.80;;;;;;;33.50;39.21;100681.77;108440;1281;21982;-74
2023/08/10 08:16:10;;;;;;;2.90;1.70;;;;;;;33.47;39.12;100679.80;108449;1277;21981;-66
2023/08/10 08:18:49;;;;;;;4.10;1.70;;;;;;;33.44;39.02;100679.85;108498;1277;21995;-59
2023/08/10 08:21:19;;;;;;;3.00;1.90;;;;;;;33.43;38.86;100686.02;108447;1277;21965;-59
2023/08/10 08:23:45;;;;;;;2.70;1.40;;;;;;;33.41;38.69;100688.35;108422;1276;21990;-60
2023/08/10 08:26:11;;;;;;;2.70;1.50;;;;;;;33.50;38.95;100691.29;108399;1282;21993;-71
2023/08/10 08:28:37;;;;;;;3.70;2.00;;;;;;;33.61;38.58;100693.34;108422;1281;21988;-74
2023/08/10 08:31:03;;;;;;;2.70;1.70;;;;;;;33.62;38.44;100693.83;108403;1274;21996;-59
2023/08/10 08:33:29;;;;;;;2.80;1.70;;;;;;;33.63;38.38;100691.21;108429;1279;22061;-74
2023/08/10 08:35:55;;;;;;;2.20;1.70;;;;;;;33.68;38.28;100690.08;108380;1282;22044;-59
2023/08/10 08:38:20;;;;;;;3.10;1.80;;;;;;;33.85;38.42;100683.26;108510;1281;22157;-60
2023/08/10 08:40:50;;;;;;;3.10;1.50;;;;;;;34.09;37.57;100687.05;108473;1282;21980;-77
2023/08/10 08:43:16;;;;;;;3.00;1.40;;;;;;;34.16;37.30;100687.27;108405;1281;22978;-77
2023/08/10 08:45:42;;;;;;;2.50;1.60;;;;;;;34.19;36.88;100686.58;108565;1278;21981;-60
2023/08/10 08:48:09;;;;;;;4.10;1.40;;;;;;;34.24;37.21;100684.67;108343;1282;23712;-77
2023/08/10 08:50:36;;;;;;;2.80;1.70;;;;;;;34.19;36.71;100685.79;108459;1282;23628;-76
2023/08/10 08:53:06;;;;;;;3.10;1.60;;;;;;;34.05;36.60;100683.66;108347;1281;21951;-79
2023/08/10 08:55:31;;;;;;;1.90;1.20;;;;;;;34.04;37.07;100688.34;108457;1277;23631;-76
2023/08/10 08:57:58;;;;;;;4.10;1.80;;;;;;;34.25;37.11;100685.18;108998;1281;23620;-76
2023/08/10 09:00:24;;;;;;;1.60;1.40;;;;;;;34.45;37.02;100681.41;108802;1282;23733;-77
2023/08/10 09:02:53;;;;;;;2.70;1.50;;;;;;;34.71;36.97;100682.70;108446;1282;22035;-75
2023/08/10 09:05:18;;;;;;;3.90;1.40;;;;;;;34.94;36.83;100679.44;108449;1274;22947;-75
2023/08/10 09:07:44;;;;;;;3.20;1.50;;;;;;;35.27;36.82;100679.77;108423;1281;23660;-76
2023/08/10 09:10:10;;;;;;;3.10;1.40;;;;;;;35.57;35.87;100678.66;108473;1281;23052;-76
2023/08/10 09:12:37;;;;;;;3.80;1.30;;;;;;;35.72;35.31;100678.23;108413;1281;23091;-61
2023/08/10 09:15:04;;;;;;;2.90;1.20;;;;;;;35.72;34.89;100676.66;108423;1281;21988;-60
2023/08/10 09:17:33;;;;;;;2.90;1.40;;;;;;;35.49;34.81;100679.70;108397;1282;23065;-61
2023/08/10 09:20:00;;;;;;;3.00;1.50;;;;;;;35.26;34.79;100676.84;108424;1280;21984;-60
2023/08/10 09:22:32;;;;;;;2.50;1.30;;;;;;;35.19;34.86;100670.54;108287;1277;21986;-75
2023/08/10 09:24:58;;;;;;;3.60;1.40;;;;;;;35.30;35.14;100665.48;108135;1282;22734;-60
2023/08/10 09:27:28;;;;;;;1.50;1.20;;;;;;;35.44;34.91;100661.73;108402;1281;22180;-77
2023/08/10 09:29:57;;;;;;;2.30;1.30;;;;;;;35.57;34.72;100662.08;108374;1280;21946;-74
2023/08/10 09:32:22;;;;;;;2.40;1.40;;;;;;;35.67;34.36;100658.54;108425;1277;23608;-75
2023/08/10 09:34:48;;;;;;;3.20;1.40;;;;;;;35.66;34.41;100655.81;108398;1281;23605;-59
2023/08/10 09:37:14;;;;;;;1.90;1.20;;;;;;;35.73;34.59;100654.59;108387;1282;21994;-76
2023/08/10 09:39:40;;;;;;;2.20;1.50;;;;;;;35.78;33.66;100654.35;108133;1282;21987;-75
2023/08/10 09:42:05;;;;;;;1.60;1.20;;;;;;;35.64;33.77;100649.19;108437;1282;21997;-76
2023/08/10 09:44:45;;;;;;;3.30;1.50;;;;;;;35.72;34.23;100648.88;108437;1277;21949;-59
2023/08/10 09:47:12;;;;;;;4.20;1.60;;;;;;;35.88;34.34;100646.47;108477;1281;22026;-59
2023/08/10 09:49:40;;;;;;;2.10;1.30;;;;;;;36.03;34.08;100646.55;108433;1277;21980;-77
2023/08/10 09:52:06;;;;;;;2.50;1.60;;;;;;;36.27;34.26;100646.70;108464;1280;21989;-60
2023/08/10 09:54:32;;;;;;;2.00;1.30;;;;;;;36.71;33.86;100640.76;108331;1280;21991;-73
2023/08/10 09:56:58;;;;;;;2.50;1.40;;;;;;;37.16;33.83;100633.95;108260;1282;23647;-60
2023/08/10 09:59:24;;;;;;;1.70;1.20;;;;;;;37.53;33.40;100632.02;108500;1274;21994;-60
2023/08/10 10:01:52;;;;;;;2.10;1.40;;;;;;;37.83;32.90;100633.29;108421;1272;21991;-75
2023/08/10 10:04:18;;;;;;;1.40;1.20;;;;;;;38.05;32.76;100624.27;108290;1282;22061;-61
2023/08/10 10:06:44;;;;;;;3.00;1.50;;;;;;;38.22;32.69;100620.17;108460;1278;21977;-76
2023/08/10 10:09:09;;;;;;;2.10;1.50;;;;;;;38.55;32.71;100622.20;108137;1281;21983;-76
2023/08/10 10:11:35;;;;;;;1.80;1.30;;;;;;;38.85;32.12;100623.98;108165;1282;22023;-62
2023/08/10 10:14:00;;;;;;;2.30;1.20;;;;;;;38.77;31.32;100626.83;108165;1283;21998;-70
2023/08/10 10:16:27;;;;;;;3.40;1.50;;;;;;;38.61;31.21;100624.71;108103;1283;23631;-78
2023/08/10 10:18:53;;;;;;;3.80;1.40;;;;;;;38.38;30.95;100615.54;108403;1282;22218;-61
2023/08/10 10:21:18;;;;;;;1.90;1.20;;;;;;;38.29;31.10;100620.00;108122;1279;21996;-79
2023/08/10 10:23:44;;;;;;;2.00;1.10;;;;;;;38.21;31.38;100621.52;108103;1283;23718;-78
2023/08/10 10:26:10;;;;;;;2.00;1.40;;;;;;;38.08;31.17;100614.03;108172;1282;21998;-62
2023/08/10 10:28:38;;;;;;;2.60;1.40;;;;;;;37.89;30.63;100609.88;108413;1276;21977;-76
2023/08/10 10:31:04;;;;;;;3.20;1.50;;;;;;;37.62;30.99;100609.13;108234;1281;21954;-78
2023/08/10 10:33:31;;;;;;;1.90;1.20;;;;;;;37.41;31.29;100601.84;108396;1278;22069;-78
2023/08/10 10:36:13;;;;;;;2.40;1.40;;;;;;;37.33;31.36;100599.23;108392;1274;23628;-61
2023/08/10 10:38:46;;;;;;;5.10;1.40;;;;;;;37.30;30.98;100601.71;108425;1281;21991;-74
2023/08/10 10:41:16;;;;;;;2.20;1.20;;;;;;;37.04;30.70;100602.36;108198;1282;23760;-79
2023/08/10 10:43:44;;;;;;;2.10;1.30;;;;;;;36.76;31.08;100599.05;108403;1281;21989;-61
2023/08/10 10:46:32;;;;;;;3.10;1.50;;;;;;;36.77;31.14;100599.86;108421;1277;22029;-60
2023/08/10 10:48:58;;;;;;;2.10;1.20;;;;;;;36.79;30.81;100599.44;108177;1281;21993;-77
2023/08/10 10:51:24;;;;;;;2.10;1.40;;;;;;;36.83;30.84;100590.59;108174;1280;24083;-74
2023/08/10 10:53:54;;;;;;;2.80;1.30;;;;;;;36.93;30.80;100584.46;108223;1283;21994;-75
2023/08/10 10:56:20;;;;;;;2.20;1.30;;;;;;;37.08;30.78;100585.52;108373;1282;22151;-78
2023/08/10 10:58:46;;;;;;;3.30;1.40;;;;;;;37.27;30.59;100586.11;108439;1282;21989;-62
2023/08/10 11:01:12;;;;;;;1.70;1.20;;;;;;;37.39;30.39;100579.00;108988;1277;21986;-75
2023/08/10 11:03:41;;;;;;;2.50;1.30;;;;;;;37.46;30.21;100580.38;108511;1282;21986;-77
2023/08/10 11:06:12;;;;;;;3.10;1.30;;;;;;;37.41;30.22;100579.52;108474;1278;21984;-77
2023/08/10 11:08:38;;;;;;;3.10;1.10;;;;;;;37.42;30.41;100580.98;108584;1282;21991;-77
2023/08/10 11:11:03;;;;;;;1.80;1.30;;;;;;;37.46;30.28;100584.42;108504;1282;22023;-59
2023/08/10 11:13:29;;;;;;;2.90;1.40;;;;;;;37.30;30.07;100579.21;108402;1282;21986;-59